world map with WLK marked

WLK - Airport

This information may not be accurate or current and is not valid for navigation or flight planning. No warranty of fitness for any purpose is made or implied.

flag of Alaskaflag of United States

Donate via PayPal

Additional information is available on the NEW Great Circle Mapper

Location
City:  Selawik, Alaska, United States
ICAO / IATA:PASK / WLK
FAA:WLK

Details
Type:Airport (Airfield)
Use:Public/Civil
Latitude:66°36'01"N (66.600139)
Longitude:159°59'09"W (-159.985749)
Datum:WGS 1984
Elevation:17 ft (5 m)
Runways:2
Longest:3002 × 60 ft (915 × 18.5 m)

Time
Timezone:UTC+25:08 (DST+26:08)
Local Time:

Weather
METAR:PASK  250516Z AUTO 10009KT 10SM FEW013 BKN019 OVC027 M02/M03 A2980 RMK AO1

Related Locations
Nearby:
Farthest:FAME: 10920 mi / 17574 km
Marion Island, Prince Edward Islands, ZA

Find:

   beyond  
but within

Other Information
Maps:
Links:
Sources:

  

Sectional Chart

Flight Planning
at skyvector.com

 


Great Circle Mapper   Great Circle Mapper
Great Circle Mapper FAQ   Great Circle Mapper FAQ
  Karl's Home Page
KLSē   KLSē Home
   GC on Facebook
Airlines of the World   Airlines of the World
Donate via PayPal


Copyright © 2004-2014, Karl L. Swartz. All rights reserved.
All trademarks mentioned herein belong to their respective owners.

Please see credits for attribution and copyright information.

Karl Swartz <karl@kls2.com>
  Powered by FreeBSD
Valid HTML 4.01!
Labeled with ICRA
hCard Microformat
Geo Microformat